createdAt,value
2022-11-27T00:01:35.313Z,35.30
2022-11-27T00:04:04.034Z,35.10
2022-11-27T00:06:33.706Z,35.67
2022-11-27T00:09:04.610Z,35.85
2022-11-27T00:11:33.136Z,36.58
2022-11-27T00:14:02.015Z,36.10
2022-11-27T00:16:30.908Z,35.10
2022-11-27T00:18:59.296Z,36.17
2022-11-27T00:21:32.796Z,35.40
2022-11-27T00:24:03.228Z,35.15
2022-11-27T00:26:37.471Z,34.35
2022-11-27T00:29:07.079Z,33.05
2022-11-27T00:31:38.058Z,31.88
2022-11-27T00:34:09.011Z,34.20
2022-11-27T00:36:38.238Z,35.35
2022-11-27T00:39:07.533Z,35.95
2022-11-27T00:41:35.942Z,36.35
2022-11-27T00:44:04.230Z,35.03
2022-11-27T00:46:34.648Z,35.15
2022-11-27T00:49:05.316Z,32.67
2022-11-27T00:51:35.061Z,33.58
2022-11-27T00:54:02.891Z,34.13
2022-11-27T00:56:33.974Z,33.33
2022-11-27T00:59:03.309Z,35.42
2022-11-27T01:01:34.228Z,31.15
2022-11-27T01:04:03.978Z,32.78
2022-11-27T01:06:32.705Z,33.03
2022-11-27T01:09:01.370Z,34.33
2022-11-27T01:11:31.869Z,32.75
2022-11-27T01:14:10.630Z,33.08
2022-11-27T01:16:43.117Z,31.30
2022-11-27T01:19:13.680Z,31.08
2022-11-27T01:21:42.693Z,31.65
2022-11-27T01:24:11.447Z,30.58
2022-11-27T01:26:43.040Z,31.00
2022-11-27T01:29:11.571Z,29.05
2022-11-27T01:31:39.650Z,30.10
2022-11-27T01:34:10.179Z,30.48
2022-11-27T01:36:38.759Z,31.50
2022-11-27T01:39:07.418Z,29.35
2022-11-27T01:41:37.449Z,32.88
2022-11-27T01:44:25.553Z,29.70
2022-11-27T01:46:59.262Z,29.88
2022-11-27T01:49:32.789Z,28.75
2022-11-27T01:52:05.287Z,28.00
2022-11-27T01:54:41.277Z,27.58
2022-11-27T01:57:20.755Z,28.55
2022-11-27T01:59:49.560Z,27.45
2022-11-27T02:02:18.860Z,30.00
2022-11-27T02:04:46.810Z,28.80
2022-11-27T02:07:15.600Z,31.25
2022-11-27T02:09:44.020Z,28.90
2022-11-27T02:12:25.161Z,28.85
2022-11-27T02:14:56.564Z,27.38
2022-11-27T02:17:33.022Z,28.48
2022-11-27T02:20:04.100Z,29.20
2022-11-27T02:23:00.532Z,29.45
2022-11-27T02:26:07.234Z,30.48
2022-11-27T02:29:00.420Z,31.38
2022-11-27T02:32:19.291Z,29.70
2022-11-27T02:35:00.610Z,30.38
2022-11-27T02:37:37.314Z,30.73
2022-11-27T02:40:14.878Z,31.15
2022-11-27T02:42:46.723Z,31.65
2022-11-27T02:45:18.272Z,33.90
2022-11-27T02:47:47.794Z,34.58
2022-11-27T02:50:21.686Z,35.22
2022-11-27T02:52:51.240Z,35.65
2022-11-27T02:55:24.638Z,36.30
2022-11-27T02:57:54.541Z,35.97
2022-11-27T03:00:23.167Z,35.25
2022-11-27T03:02:55.457Z,38.30
2022-11-27T03:08:18.260Z,35.53
2022-11-27T03:11:09.896Z,36.80
2022-11-27T03:13:54.381Z,37.50
2022-11-27T03:16:51.693Z,38.33
2022-11-27T03:19:25.245Z,40.47
2022-11-27T03:21:58.672Z,37.75
2022-11-27T03:24:28.309Z,41.85
2022-11-27T03:26:59.033Z,41.45
2022-11-27T03:29:28.849Z,41.72
2022-11-27T03:31:58.462Z,40.63
2022-11-27T03:34:26.911Z,42.20
2022-11-27T03:36:56.771Z,42.03
2022-11-27T03:39:25.322Z,42.10
2022-11-27T03:42:15.047Z,41.47
2022-11-27T03:44:58.566Z,40.90
2022-11-27T03:47:34.834Z,41.58
2022-11-27T03:50:02.649Z,42.60
2022-11-27T03:52:43.029Z,43.80
2022-11-27T03:55:28.402Z,43.53
2022-11-27T03:58:07.509Z,42.65
2022-11-27T04:00:37.777Z,43.75
2022-11-27T04:03:10.577Z,42.67
2022-11-27T04:05:39.358Z,47.10
2022-11-27T04:08:07.609Z,43.10
2022-11-27T04:10:36.110Z,45.80
2022-11-27T04:13:04.197Z,46.25
2022-11-27T04:15:32.597Z,44.95
2022-11-27T04:18:01.299Z,45.08
2022-11-27T04:20:29.918Z,45.35
2022-11-27T04:22:58.815Z,43.70
2022-11-27T04:25:27.653Z,47.55
2022-11-27T04:27:56.542Z,43.55
2022-11-27T04:30:24.785Z,47.80
2022-11-27T04:32:53.331Z,44.90
2022-11-27T04:35:21.111Z,44.85
2022-11-27T04:37:49.720Z,45.40
2022-11-27T04:40:17.604Z,46.47
2022-11-27T04:42:46.067Z,42.38
2022-11-27T04:45:14.852Z,42.50
2022-11-27T04:47:42.808Z,45.28
2022-11-27T04:50:11.398Z,43.80
2022-11-27T04:52:39.832Z,41.55
2022-11-27T04:55:07.964Z,47.33
2022-11-27T04:57:37.273Z,45.70
2022-11-27T05:00:06.061Z,45.67
2022-11-27T05:02:34.851Z,45.05
2022-11-27T05:05:03.277Z,47.90
2022-11-27T05:07:31.402Z,47.60
2022-11-27T05:09:59.560Z,46.28
2022-11-27T05:12:27.654Z,45.40
2022-11-27T05:14:55.291Z,45.63
2022-11-27T05:17:23.756Z,47.85
2022-11-27T05:19:51.589Z,45.80
2022-11-27T05:22:20.326Z,44.45
2022-11-27T05:24:48.217Z,44.63
2022-11-27T05:27:16.762Z,46.30
2022-11-27T05:29:45.367Z,45.50
2022-11-27T05:32:57.271Z,46.78
2022-11-27T05:35:25.352Z,43.22
2022-11-27T05:37:53.940Z,45.42
2022-11-27T05:40:21.890Z,44.05
2022-11-27T05:42:50.372Z,46.35
2022-11-27T05:45:18.405Z,44.33
2022-11-27T05:47:47.351Z,46.10
2022-11-27T05:50:15.111Z,45.85
2022-11-27T05:52:43.751Z,45.92
2022-11-27T05:55:11.619Z,45.90
2022-11-27T05:57:40.029Z,42.15
2022-11-27T06:00:09.159Z,44.17
2022-11-27T06:02:37.581Z,45.85
2022-11-27T06:05:06.190Z,47.25
2022-11-27T06:07:34.712Z,47.80
2022-11-27T06:10:02.601Z,47.83
2022-11-27T06:12:32.450Z,46.33
2022-11-27T06:15:01.970Z,43.88
2022-11-27T06:17:30.439Z,48.15
2022-11-27T06:19:58.342Z,47.38
2022-11-27T06:22:27.211Z,47.75
2022-11-27T06:24:55.114Z,43.40
2022-11-27T06:27:23.841Z,45.45
2022-11-27T06:29:51.632Z,45.83
2022-11-27T06:32:19.966Z,47.17
2022-11-27T06:34:47.874Z,48.97
2022-11-27T06:37:16.485Z,55.70
2022-11-27T06:39:44.290Z,49.05
2022-11-27T06:42:13.060Z,52.10
2022-11-27T06:44:41.181Z,48.75
2022-11-27T06:47:10.211Z,46.72
2022-11-27T06:49:38.174Z,46.65
2022-11-27T06:52:06.565Z,47.45
2022-11-27T06:54:34.352Z,46.03
2022-11-27T06:57:02.842Z,50.50
2022-11-27T06:59:30.761Z,45.22
2022-11-27T07:01:59.155Z,46.47
2022-11-27T07:04:27.030Z,46.35
2022-11-27T07:06:55.526Z,46.72
2022-11-27T07:09:23.430Z,46.17
2022-11-27T07:11:51.901Z,48.78
2022-11-27T07:14:20.053Z,48.25
2022-11-27T07:16:48.440Z,45.80
2022-11-27T07:19:16.773Z,44.80
2022-11-27T07:21:44.850Z,45.90
2022-11-27T07:24:13.267Z,45.80
2022-11-27T07:26:41.363Z,48.35
2022-11-27T07:29:09.750Z,48.42
2022-11-27T07:31:38.400Z,47.42
2022-11-27T07:34:11.696Z,45.90
2022-11-27T07:36:42.832Z,45.95
2022-11-27T07:39:11.176Z,46.15
2022-11-27T07:41:39.064Z,44.83
2022-11-27T07:44:07.701Z,46.00
2022-11-27T07:46:36.645Z,44.95
2022-11-27T07:49:04.500Z,45.45
2022-11-27T07:51:32.787Z,45.03
2022-11-27T07:54:00.653Z,44.53
2022-11-27T07:56:29.031Z,47.03
2022-11-27T07:58:58.626Z,48.17
2022-11-27T08:01:26.971Z,44.22
2022-11-27T08:03:55.179Z,47.85
2022-11-27T08:06:25.771Z,45.83
2022-11-27T08:08:56.194Z,44.85
2022-11-27T08:11:30.027Z,47.88
2022-11-27T08:14:00.445Z,45.65
2022-11-27T08:16:29.317Z,47.85
2022-11-27T08:18:58.097Z,46.35
2022-11-27T08:21:27.757Z,47.42
2022-11-27T08:23:57.111Z,47.20
2022-11-27T08:26:27.785Z,48.08
2022-11-27T08:28:56.621Z,47.58
2022-11-27T08:31:25.294Z,48.50
2022-11-27T08:33:53.301Z,47.72
2022-11-27T08:36:23.078Z,50.80
2022-11-27T08:38:51.142Z,49.38
2022-11-27T08:41:19.724Z,52.30
2022-11-27T08:43:47.662Z,47.83
2022-11-27T08:46:16.353Z,51.00
2022-11-27T08:48:44.831Z,48.53
2022-11-27T08:51:15.020Z,47.83
2022-11-27T08:53:46.001Z,48.55
2022-11-27T08:56:20.094Z,50.97
2022-11-27T08:58:48.431Z,50.83
2022-11-27T09:01:19.391Z,48.00
2022-11-27T09:03:48.123Z,48.03
2022-11-27T09:06:23.583Z,47.10
2022-11-27T09:08:53.064Z,47.47
2022-11-27T09:11:21.590Z,47.70
2022-11-27T09:13:49.842Z,48.47
2022-11-27T09:16:20.216Z,48.58
2022-11-27T09:18:50.698Z,45.75
2022-11-27T09:21:21.012Z,46.67
2022-11-27T09:23:48.825Z,47.70
2022-11-27T09:26:18.618Z,47.20
2022-11-27T09:28:46.531Z,46.88
2022-11-27T09:31:16.000Z,48.75
2022-11-27T09:33:44.558Z,46.80
2022-11-27T09:36:15.523Z,47.72
2022-11-27T09:38:43.823Z,48.00
2022-11-27T09:41:14.530Z,46.60
2022-11-27T09:43:52.078Z,46.65
2022-11-27T09:46:46.585Z,48.85
2022-11-27T09:49:20.795Z,44.88
2022-11-27T09:51:57.949Z,46.40
2022-11-27T09:54:52.255Z,47.63
2022-11-27T09:57:27.917Z,45.78
2022-11-27T09:59:56.300Z,45.08
2022-11-27T10:02:29.655Z,47.75
2022-11-27T10:05:15.874Z,46.30
2022-11-27T10:08:22.120Z,45.25
2022-11-27T10:11:11.691Z,45.95
2022-11-27T10:13:52.139Z,43.20
2022-11-27T10:16:31.238Z,46.30
2022-11-27T10:19:17.647Z,47.15
2022-11-27T10:21:52.148Z,46.30
2022-11-27T10:24:39.308Z,44.90
2022-11-27T10:27:22.054Z,44.92
2022-11-27T10:29:57.085Z,44.78
2022-11-27T10:32:54.501Z,44.53
2022-11-27T10:35:24.758Z,42.88
2022-11-27T10:38:06.435Z,44.72
2022-11-27T10:40:41.583Z,42.13
2022-11-27T10:43:35.964Z,43.95
2022-11-27T10:46:33.136Z,45.65
2022-11-27T10:49:01.137Z,43.55
2022-11-27T10:51:32.787Z,41.65
2022-11-27T10:54:02.112Z,43.05
2022-11-27T10:57:07.775Z,43.80
2022-11-27T10:59:43.000Z,43.55
2022-11-27T11:02:34.422Z,43.58
2022-11-27T11:05:40.908Z,42.90
2022-11-27T11:08:21.067Z,43.97
2022-11-27T11:10:59.286Z,42.97
2022-11-27T11:13:29.529Z,42.85
2022-11-27T11:16:04.635Z,43.55
2022-11-27T11:18:36.129Z,43.53
2022-11-27T11:21:07.782Z,42.50
2022-11-27T11:23:39.786Z,41.63
2022-11-27T11:26:24.020Z,44.08
2022-11-27T11:28:54.994Z,38.58
2022-11-27T11:31:29.793Z,39.20
2022-11-27T11:34:21.502Z,40.95
2022-11-27T11:37:01.666Z,42.63
2022-11-27T11:39:35.639Z,40.80
2022-11-27T11:42:10.542Z,41.00
2022-11-27T11:44:41.153Z,41.35
2022-11-27T11:47:17.545Z,41.95
2022-11-27T11:49:46.712Z,41.97
2022-11-27T11:52:14.956Z,42.75
2022-11-27T11:55:07.477Z,42.65
2022-11-27T11:57:57.519Z,42.47
2022-11-27T12:00:31.566Z,44.45
2022-11-27T12:03:23.703Z,42.78
2022-11-27T12:06:27.880Z,40.35
2022-11-27T12:09:23.893Z,41.67
2022-11-27T12:11:54.782Z,43.15
2022-11-27T12:14:43.996Z,40.42
2022-11-27T12:17:30.617Z,39.55
2022-11-27T12:20:09.967Z,39.33
2022-11-27T12:22:44.590Z,41.83
2022-11-27T12:25:34.026Z,39.97
2022-11-27T12:28:11.463Z,40.10
2022-11-27T12:30:48.246Z,42.05
2022-11-27T12:33:44.581Z,41.50
2022-11-27T12:36:31.713Z,41.75
2022-11-27T12:39:18.274Z,41.00
2022-11-27T12:42:04.848Z,41.58
2022-11-27T12:45:02.742Z,39.95
2022-11-27T12:47:47.300Z,41.67
2022-11-27T12:50:27.737Z,40.45
2022-11-27T12:53:26.933Z,41.42
2022-11-27T12:56:01.366Z,40.63
2022-11-27T12:58:33.304Z,40.80
2022-11-27T13:01:08.570Z,30.42
2022-11-27T13:03:40.086Z,39.40
2022-11-27T13:06:15.544Z,40.25
2022-11-27T13:08:52.282Z,41.72
2022-11-27T13:11:24.737Z,41.30
2022-11-27T13:14:04.275Z,40.58
2022-11-27T13:16:35.527Z,40.92
2022-11-27T13:19:21.885Z,40.92
2022-11-27T13:21:51.499Z,40.20
2022-11-27T13:24:26.663Z,43.33
2022-11-27T13:27:17.716Z,39.70
2022-11-27T13:30:10.229Z,41.08
2022-11-27T13:32:41.390Z,39.63
2022-11-27T13:35:31.278Z,39.95
2022-11-27T13:38:10.824Z,39.83
2022-11-27T13:40:42.704Z,39.95
2022-11-27T13:43:34.600Z,39.80
2022-11-27T13:46:08.656Z,38.55
2022-11-27T13:48:42.816Z,39.75
2022-11-27T13:51:12.428Z,40.97
2022-11-27T13:53:43.118Z,41.20
2022-11-27T13:56:10.782Z,39.90
2022-11-27T13:58:41.473Z,41.63
2022-11-27T14:01:15.615Z,41.53
2022-11-27T14:03:44.961Z,39.95
2022-11-27T14:06:28.567Z,40.97
2022-11-27T14:09:05.753Z,38.95
2022-11-27T14:11:47.849Z,39.92
2022-11-27T14:14:20.085Z,40.90
2022-11-27T14:17:03.025Z,41.28
2022-11-27T14:19:46.913Z,40.58
2022-11-27T14:23:11.695Z,40.83
2022-11-27T14:25:41.395Z,37.53
2022-11-27T14:28:28.106Z,40.22
2022-11-27T14:30:59.619Z,39.65
2022-11-27T14:33:59.526Z,39.92
2022-11-27T14:36:31.198Z,40.95
2022-11-27T14:38:59.184Z,39.70
2022-11-27T14:41:28.606Z,41.58
2022-11-27T14:44:05.232Z,41.90
2022-11-27T14:46:36.023Z,41.58
2022-11-27T14:49:04.538Z,41.67
2022-11-27T14:51:37.877Z,42.28
2022-11-27T14:56:46.360Z,43.38
2022-11-27T14:59:20.842Z,43.67
2022-11-27T15:02:04.242Z,45.08
2022-11-27T15:04:37.752Z,43.95
2022-11-27T15:07:11.354Z,42.03
2022-11-27T15:09:47.400Z,42.53
2022-11-27T15:12:21.481Z,48.17
2022-11-27T15:15:09.233Z,41.85
2022-11-27T15:17:39.538Z,42.53
2022-11-27T15:20:15.755Z,43.53
2022-11-27T15:22:58.226Z,43.25
2022-11-27T15:25:40.217Z,45.00
2022-11-27T15:28:34.432Z,44.13
2022-11-27T15:31:03.487Z,42.22
2022-11-27T15:33:34.121Z,41.13
2022-11-27T15:36:21.192Z,43.05
2022-11-27T15:38:52.754Z,42.50
2022-11-27T15:41:23.681Z,44.42
2022-11-27T15:43:53.120Z,45.20
2022-11-27T15:46:30.672Z,44.95
2022-11-27T15:48:59.309Z,42.25
2022-11-27T15:51:27.387Z,48.47
2022-11-27T15:53:56.068Z,49.17
2022-11-27T15:56:24.220Z,50.35
2022-11-27T15:58:52.923Z,48.22
2022-11-27T16:01:21.575Z,48.25
2022-11-27T16:03:50.301Z,50.20
2022-11-27T16:06:21.192Z,46.53
2022-11-27T16:08:57.639Z,48.92
2022-11-27T16:11:27.512Z,46.88
2022-11-27T16:13:57.085Z,45.85
2022-11-27T16:16:26.097Z,46.90
2022-11-27T16:19:02.862Z,54.78
2022-11-27T16:21:32.007Z,51.20
2022-11-27T16:24:04.862Z,48.45
2022-11-27T16:26:33.319Z,51.03
2022-11-27T16:29:02.535Z,47.72
2022-11-27T16:31:30.767Z,48.80
2022-11-27T16:34:02.021Z,50.95
2022-11-27T16:36:29.996Z,48.38
2022-11-27T16:38:58.422Z,49.15
2022-11-27T16:41:27.069Z,47.88
2022-11-27T16:43:58.015Z,54.60
2022-11-27T16:46:29.056Z,51.35
2022-11-27T16:49:00.451Z,52.22
2022-11-27T16:51:34.069Z,56.35
2022-11-27T16:54:05.497Z,54.85
2022-11-27T16:56:36.111Z,56.65
2022-11-27T16:59:12.366Z,61.50
2022-11-27T17:01:41.896Z,66.68
2022-11-27T17:04:17.032Z,81.15
2022-11-27T17:06:46.117Z,60.00
2022-11-27T17:09:15.313Z,59.13
2022-11-27T17:11:48.968Z,60.30
2022-11-27T17:14:20.636Z,60.00
2022-11-27T17:16:49.827Z,59.15
2022-11-27T17:19:19.392Z,58.60
2022-11-27T17:21:48.480Z,58.78
2022-11-27T17:24:18.219Z,61.83
2022-11-27T17:26:48.177Z,61.08
2022-11-27T17:29:19.569Z,61.25
2022-11-27T17:31:51.335Z,61.92
2022-11-27T17:34:20.938Z,61.47
2022-11-27T17:36:57.678Z,61.60
2022-11-27T17:39:26.218Z,60.00
2022-11-27T17:41:54.174Z,60.38
2022-11-27T17:44:22.843Z,61.13
2022-11-27T17:46:51.270Z,56.88
2022-11-27T17:49:22.151Z,57.55
2022-11-27T17:51:51.654Z,58.53
2022-11-27T17:54:21.358Z,56.15
2022-11-27T17:56:52.007Z,58.35
2022-11-27T17:59:21.041Z,55.28
2022-11-27T18:01:51.532Z,56.58
2022-11-27T18:04:21.248Z,57.47
2022-11-27T18:06:49.585Z,56.72
2022-11-27T18:09:18.738Z,57.65
2022-11-27T18:11:48.094Z,54.28
2022-11-27T18:14:17.532Z,60.83
2022-11-27T18:16:45.718Z,64.32
2022-11-27T18:19:14.264Z,68.43
2022-11-27T18:21:42.501Z,67.95
2022-11-27T18:24:26.139Z,67.97
2022-11-27T18:27:10.536Z,61.05
2022-11-27T18:29:41.993Z,59.15
2022-11-27T18:32:12.189Z,57.47
2022-11-27T18:34:41.578Z,59.78
2022-11-27T18:37:10.691Z,110.43
2022-11-27T18:39:40.703Z,99.65
2022-11-27T18:42:09.121Z,191.43
2022-11-27T18:44:44.398Z,84.75
2022-11-27T18:47:15.119Z,64.10
2022-11-27T18:49:45.696Z,57.20
2022-11-27T18:52:14.406Z,58.88
2022-11-27T18:54:44.579Z,58.15
2022-11-27T18:57:14.118Z,60.90
2022-11-27T18:59:45.433Z,58.83
2022-11-27T19:02:13.946Z,59.85
2022-11-27T19:04:44.894Z,59.13
2022-11-27T19:07:13.650Z,61.40
2022-11-27T19:09:42.317Z,60.72
2022-11-27T19:12:10.841Z,59.50
2022-11-27T19:14:40.641Z,60.58
2022-11-27T19:17:09.889Z,60.78
2022-11-27T19:19:55.032Z,60.92
2022-11-27T19:22:23.209Z,61.33
2022-11-27T19:24:51.717Z,61.65
2022-11-27T19:27:19.504Z,71.95
2022-11-27T19:29:49.512Z,75.63
2022-11-27T19:32:18.528Z,96.80
2022-11-27T19:34:47.233Z,85.53
2022-11-27T19:37:14.989Z,68.13
2022-11-27T19:39:43.487Z,67.63
2022-11-27T19:42:11.771Z,67.95
2022-11-27T19:44:40.710Z,70.22
2022-11-27T19:47:10.269Z,67.15
2022-11-27T19:49:39.374Z,64.50
2022-11-27T19:52:10.459Z,65.03
2022-11-27T19:54:39.575Z,62.38
2022-11-27T19:57:08.817Z,60.97
2022-11-27T19:59:38.442Z,62.25
2022-11-27T20:02:09.790Z,58.35
2022-11-27T20:04:38.754Z,60.03
2022-11-27T20:07:08.537Z,59.40
2022-11-27T20:09:37.193Z,60.08
2022-11-27T20:12:06.006Z,57.75
2022-11-27T20:14:35.954Z,58.20
2022-11-27T20:17:04.314Z,60.40
2022-11-27T20:19:33.987Z,59.33
2022-11-27T20:22:02.727Z,58.05
2022-11-27T20:24:32.378Z,58.35
2022-11-27T20:27:01.213Z,57.65
2022-11-27T20:29:29.778Z,57.15
2022-11-27T20:32:00.615Z,58.85
2022-11-27T20:34:32.733Z,59.83
2022-11-27T20:37:00.955Z,57.72
2022-11-27T20:39:29.764Z,59.28
2022-11-27T20:41:58.555Z,56.50
2022-11-27T20:44:28.229Z,58.05
2022-11-27T20:46:56.538Z,58.15
2022-11-27T20:49:25.919Z,60.10
2022-11-27T20:51:55.587Z,56.28
2022-11-27T20:54:24.726Z,55.50
2022-11-27T20:56:52.703Z,60.42
2022-11-27T20:59:22.717Z,59.10
2022-11-27T21:01:51.746Z,57.78
2022-11-27T21:04:25.401Z,58.78
2022-11-27T21:06:54.640Z,59.88
2022-11-27T21:09:24.096Z,58.80
2022-11-27T21:11:52.081Z,61.00
2022-11-27T21:14:20.677Z,58.08
2022-11-27T21:16:51.193Z,60.97
2022-11-27T21:19:21.807Z,60.33
2022-11-27T21:21:51.987Z,57.15
2022-11-27T21:24:21.636Z,57.30
2022-11-27T21:26:50.608Z,54.58
2022-11-27T21:29:18.952Z,58.78
2022-11-27T21:31:48.214Z,56.15
2022-11-27T21:34:17.166Z,58.83
2022-11-27T21:36:45.363Z,63.55
2022-11-27T21:39:20.746Z,60.92
2022-11-27T21:41:50.506Z,60.05
2022-11-27T21:44:21.298Z,60.85
2022-11-27T21:46:50.324Z,60.30
2022-11-27T21:49:21.300Z,59.22
2022-11-27T21:51:53.850Z,61.97
2022-11-27T21:54:29.608Z,56.33
2022-11-27T21:56:57.432Z,54.97
2022-11-27T21:59:25.962Z,55.70
2022-11-27T22:01:53.835Z,53.03
2022-11-27T22:04:22.373Z,53.40
2022-11-27T22:06:53.116Z,53.40
2022-11-27T22:09:21.663Z,51.60
2022-11-27T22:11:49.586Z,54.72
2022-11-27T22:14:17.400Z,53.33
2022-11-27T22:16:46.964Z,54.83
2022-11-27T22:19:16.790Z,56.25
2022-11-27T22:21:45.422Z,60.05
2022-11-27T22:24:18.914Z,63.80
2022-11-27T22:26:51.576Z,60.15
2022-11-27T22:29:19.896Z,60.92
2022-11-27T22:31:47.625Z,60.22
2022-11-27T22:34:16.851Z,60.83
2022-11-27T22:36:45.353Z,68.70
2022-11-27T22:39:14.924Z,70.70
2022-11-27T22:41:43.556Z,72.25
2022-11-27T22:44:16.227Z,72.97
2022-11-27T22:46:44.981Z,78.00
2022-11-27T22:49:16.251Z,78.20
2022-11-27T22:51:45.437Z,82.78
2022-11-27T22:54:17.449Z,83.90
2022-11-27T22:56:46.862Z,77.85
2022-11-27T22:59:32.829Z,77.72
2022-11-27T23:02:03.216Z,75.40
2022-11-27T23:04:32.107Z,74.45
2022-11-27T23:07:00.181Z,76.00
2022-11-27T23:09:30.117Z,72.18
2022-11-27T23:11:58.863Z,74.05
2022-11-27T23:14:27.441Z,74.55
2022-11-27T23:16:56.187Z,75.85
2022-11-27T23:19:24.756Z,74.72
2022-11-27T23:21:52.511Z,75.35
2022-11-27T23:24:20.454Z,81.47
2022-11-27T23:26:48.786Z,80.63
2022-11-27T23:29:16.862Z,83.18
2022-11-27T23:31:45.216Z,81.30
2022-11-27T23:34:16.201Z,84.97
2022-11-27T23:36:44.546Z,82.75
2022-11-27T23:39:13.646Z,78.10
2022-11-27T23:41:41.967Z,81.22
2022-11-27T23:44:10.654Z,85.18
2022-11-27T23:46:38.376Z,81.65
2022-11-27T23:49:06.512Z,83.10
2022-11-27T23:51:34.784Z,81.93
2022-11-27T23:54:08.585Z,82.22
2022-11-27T23:56:37.544Z,88.88
2022-11-27T23:59:06.203Z,82.47
